sensor_id;sensor_type;location;lat;lon;timestamp;P1;durP1;ratioP1;P2;durP2;ratioP2
80411;SDS011;69749;42.684;23.360;2024-03-08T00:00:14;2.58;;;1.60;;
80411;SDS011;69749;42.684;23.360;2024-03-08T00:02:43;1.52;;;1.42;;
80411;SDS011;69749;42.684;23.360;2024-03-08T00:05:10;1.83;;;1.40;;
80411;SDS011;69749;42.684;23.360;2024-03-08T00:07:36;2.78;;;1.83;;
80411;SDS011;69749;42.684;23.360;2024-03-08T00:10:06;2.42;;;1.85;;
80411;SDS011;69749;42.684;23.360;2024-03-08T00:12:39;2.45;;;1.65;;
80411;SDS011;69749;42.684;23.360;2024-03-08T00:15:09;1.95;;;1.55;;
80411;SDS011;69749;42.684;23.360;2024-03-08T00:17:36;2.78;;;2.40;;
80411;SDS011;69749;42.684;23.360;2024-03-08T00:20:01;3.55;;;2.42;;
80411;SDS011;69749;42.684;23.360;2024-03-08T00:22:33;4.57;;;2.85;;
80411;SDS011;69749;42.684;23.360;2024-03-08T00:25:02;3.55;;;2.63;;
80411;SDS011;69749;42.684;23.360;2024-03-08T00:27:29;4.70;;;2.70;;
80411;SDS011;69749;42.684;23.360;2024-03-08T00:29:58;5.78;;;3.30;;
80411;SDS011;69749;42.684;23.360;2024-03-08T00:32:24;2.85;;;2.30;;
80411;SDS011;69749;42.684;23.360;2024-03-08T00:34:50;3.35;;;2.22;;
80411;SDS011;69749;42.684;23.360;2024-03-08T00:37:19;2.28;;;1.90;;
80411;SDS011;69749;42.684;23.360;2024-03-08T00:39:50;2.80;;;1.60;;
80411;SDS011;69749;42.684;23.360;2024-03-08T00:42:17;2.15;;;1.40;;
80411;SDS011;69749;42.684;23.360;2024-03-08T00:44:43;2.13;;;1.38;;
80411;SDS011;69749;42.684;23.360;2024-03-08T00:47:08;1.77;;;1.45;;
80411;SDS011;69749;42.684;23.360;2024-03-08T00:49:34;1.73;;;1.30;;
80411;SDS011;69749;42.684;23.360;2024-03-08T00:52:03;1.48;;;1.38;;
80411;SDS011;69749;42.684;23.360;2024-03-08T00:54:32;1.23;;;1.20;;
80411;SDS011;69749;42.684;23.360;2024-03-08T00:56:58;2.58;;;1.42;;
80411;SDS011;69749;42.684;23.360;2024-03-08T00:59:23;1.70;;;1.38;;
80411;SDS011;69749;42.684;23.360;2024-03-08T01:01:49;1.85;;;1.42;;
80411;SDS011;69749;42.684;23.360;2024-03-08T01:04:14;1.73;;;1.50;;
80411;SDS011;69749;42.684;23.360;2024-03-08T01:06:40;2.78;;;1.83;;
80411;SDS011;69749;42.684;23.360;2024-03-08T01:09:05;1.15;;;1.05;;
80411;SDS011;69749;42.684;23.360;2024-03-08T01:11:32;2.53;;;1.73;;
80411;SDS011;69749;42.684;23.360;2024-03-08T01:13:59;2.38;;;1.23;;
80411;SDS011;69749;42.684;23.360;2024-03-08T01:16:24;1.38;;;1.27;;
80411;SDS011;69749;42.684;23.360;2024-03-08T01:18:50;1.40;;;1.30;;
80411;SDS011;69749;42.684;23.360;2024-03-08T01:21:15;1.67;;;1.40;;
80411;SDS011;69749;42.684;23.360;2024-03-08T01:23:41;4.03;;;1.40;;
80411;SDS011;69749;42.684;23.360;2024-03-08T01:26:07;2.35;;;1.52;;
80411;SDS011;69749;42.684;23.360;2024-03-08T01:28:32;2.10;;;1.40;;
80411;SDS011;69749;42.684;23.360;2024-03-08T01:30:59;2.25;;;1.50;;
80411;SDS011;69749;42.684;23.360;2024-03-08T01:33:25;2.33;;;1.60;;
80411;SDS011;69749;42.684;23.360;2024-03-08T01:35:52;2.20;;;1.73;;
80411;SDS011;69749;42.684;23.360;2024-03-08T01:38:18;2.25;;;1.73;;
80411;SDS011;69749;42.684;23.360;2024-03-08T01:40:46;2.90;;;1.90;;
80411;SDS011;69749;42.684;23.360;2024-03-08T01:46:03;1.92;;;1.48;;
80411;SDS011;69749;42.684;23.360;2024-03-08T01:48:30;1.67;;;1.45;;
80411;SDS011;69749;42.684;23.360;2024-03-08T01:50:56;1.50;;;1.40;;
80411;SDS011;69749;42.684;23.360;2024-03-08T01:53:23;2.33;;;1.60;;
80411;SDS011;69749;42.684;23.360;2024-03-08T01:55:50;1.75;;;1.52;;
80411;SDS011;69749;42.684;23.360;2024-03-08T01:58:19;1.88;;;1.50;;
80411;SDS011;69749;42.684;23.360;2024-03-08T02:00:47;2.30;;;1.52;;
80411;SDS011;69749;42.684;23.360;2024-03-08T02:03:16;3.55;;;1.95;;
80411;SDS011;69749;42.684;23.360;2024-03-08T02:05:42;2.00;;;1.77;;
80411;SDS011;69749;42.684;23.360;2024-03-08T02:08:11;2.40;;;1.90;;
80411;SDS011;69749;42.684;23.360;2024-03-08T02:10:48;1.60;;;1.48;;
80411;SDS011;69749;42.684;23.360;2024-03-08T02:13:14;2.50;;;1.90;;
80411;SDS011;69749;42.684;23.360;2024-03-08T02:18:24;3.35;;;1.90;;
80411;SDS011;69749;42.684;23.360;2024-03-08T02:23:20;2.78;;;1.95;;
80411;SDS011;69749;42.684;23.360;2024-03-08T02:25:46;1.60;;;1.48;;
80411;SDS011;69749;42.684;23.360;2024-03-08T02:28:12;1.48;;;1.38;;
80411;SDS011;69749;42.684;23.360;2024-03-08T02:30:38;1.73;;;1.45;;
80411;SDS011;69749;42.684;23.360;2024-03-08T02:33:04;1.48;;;1.40;;
80411;SDS011;69749;42.684;23.360;2024-03-08T02:35:31;2.72;;;1.70;;
80411;SDS011;69749;42.684;23.360;2024-03-08T02:37:59;1.75;;;1.38;;
80411;SDS011;69749;42.684;23.360;2024-03-08T02:40:25;1.65;;;1.50;;
80411;SDS011;69749;42.684;23.360;2024-03-08T02:42:51;2.35;;;1.95;;
80411;SDS011;69749;42.684;23.360;2024-03-08T02:45:16;2.03;;;1.83;;
80411;SDS011;69749;42.684;23.360;2024-03-08T02:47:42;1.52;;;1.42;;
80411;SDS011;69749;42.684;23.360;2024-03-08T02:50:07;2.38;;;1.70;;
80411;SDS011;69749;42.684;23.360;2024-03-08T02:52:33;2.15;;;1.30;;
80411;SDS011;69749;42.684;23.360;2024-03-08T02:55:00;2.58;;;1.58;;
80411;SDS011;69749;42.684;23.360;2024-03-08T02:57:26;2.00;;;1.13;;
80411;SDS011;69749;42.684;23.360;2024-03-08T02:59:53;1.30;;;1.10;;
80411;SDS011;69749;42.684;23.360;2024-03-08T03:02:19;1.10;;;1.10;;
80411;SDS011;69749;42.684;23.360;2024-03-08T03:04:44;1.15;;;0.93;;
80411;SDS011;69749;42.684;23.360;2024-03-08T03:07:10;1.52;;;1.00;;
80411;SDS011;69749;42.684;23.360;2024-03-08T03:09:36;1.25;;;1.15;;
80411;SDS011;69749;42.684;23.360;2024-03-08T03:12:02;1.42;;;1.08;;
80411;SDS011;69749;42.684;23.360;2024-03-08T03:14:27;0.95;;;0.95;;
80411;SDS011;69749;42.684;23.360;2024-03-08T03:16:53;0.95;;;0.95;;
80411;SDS011;69749;42.684;23.360;2024-03-08T03:19:19;2.75;;;1.20;;
80411;SDS011;69749;42.684;23.360;2024-03-08T03:21:45;1.33;;;1.15;;
80411;SDS011;69749;42.684;23.360;2024-03-08T03:24:11;1.13;;;1.00;;
80411;SDS011;69749;42.684;23.360;2024-03-08T03:26:40;1.20;;;1.05;;
80411;SDS011;69749;42.684;23.360;2024-03-08T03:29:06;1.88;;;1.23;;
80411;SDS011;69749;42.684;23.360;2024-03-08T03:33:59;4.82;;;2.70;;
80411;SDS011;69749;42.684;23.360;2024-03-08T03:36:27;2.53;;;1.67;;
80411;SDS011;69749;42.684;23.360;2024-03-08T03:38:54;1.90;;;1.40;;
80411;SDS011;69749;42.684;23.360;2024-03-08T03:41:30;2.13;;;1.40;;
80411;SDS011;69749;42.684;23.360;2024-03-08T03:43:56;3.33;;;2.15;;
80411;SDS011;69749;42.684;23.360;2024-03-08T03:46:21;2.72;;;1.35;;
80411;SDS011;69749;42.684;23.360;2024-03-08T03:48:46;1.60;;;1.50;;
80411;SDS011;69749;42.684;23.360;2024-03-08T03:51:12;1.83;;;1.70;;
80411;SDS011;69749;42.684;23.360;2024-03-08T03:53:40;2.80;;;2.05;;
80411;SDS011;69749;42.684;23.360;2024-03-08T03:56:06;1.63;;;1.50;;
80411;SDS011;69749;42.684;23.360;2024-03-08T03:58:32;2.40;;;1.40;;
80411;SDS011;69749;42.684;23.360;2024-03-08T04:00:58;1.77;;;1.67;;
80411;SDS011;69749;42.684;23.360;2024-03-08T04:03:23;2.38;;;1.67;;
80411;SDS011;69749;42.684;23.360;2024-03-08T04:05:49;1.88;;;1.17;;
80411;SDS011;69749;42.684;23.360;2024-03-08T04:08:16;1.45;;;1.10;;
80411;SDS011;69749;42.684;23.360;2024-03-08T04:10:42;2.22;;;1.58;;
80411;SDS011;69749;42.684;23.360;2024-03-08T04:13:07;3.60;;;2.40;;
80411;SDS011;69749;42.684;23.360;2024-03-08T04:15:34;3.85;;;2.70;;
80411;SDS011;69749;42.684;23.360;2024-03-08T04:18:00;2.50;;;1.75;;
80411;SDS011;69749;42.684;23.360;2024-03-08T04:20:26;1.92;;;1.50;;
80411;SDS011;69749;42.684;23.360;2024-03-08T04:22:51;2.58;;;1.60;;
80411;SDS011;69749;42.684;23.360;2024-03-08T04:25:17;2.03;;;1.60;;
80411;SDS011;69749;42.684;23.360;2024-03-08T04:27:42;1.50;;;1.40;;
80411;SDS011;69749;42.684;23.360;2024-03-08T04:30:09;2.83;;;2.00;;
80411;SDS011;69749;42.684;23.360;2024-03-08T04:32:35;2.72;;;1.80;;
80411;SDS011;69749;42.684;23.360;2024-03-08T04:35:01;2.45;;;1.85;;
80411;SDS011;69749;42.684;23.360;2024-03-08T04:37:26;2.00;;;1.65;;
80411;SDS011;69749;42.684;23.360;2024-03-08T04:39:54;1.98;;;1.65;;
80411;SDS011;69749;42.684;23.360;2024-03-08T04:42:20;2.00;;;1.70;;
80411;SDS011;69749;42.684;23.360;2024-03-08T04:44:46;2.35;;;1.98;;
80411;SDS011;69749;42.684;23.360;2024-03-08T04:47:11;3.28;;;1.70;;
80411;SDS011;69749;42.684;23.360;2024-03-08T04:49:37;3.58;;;2.20;;
80411;SDS011;69749;42.684;23.360;2024-03-08T04:52:03;2.25;;;1.67;;
80411;SDS011;69749;42.684;23.360;2024-03-08T04:54:29;3.55;;;1.95;;
80411;SDS011;69749;42.684;23.360;2024-03-08T04:56:55;2.80;;;2.40;;
80411;SDS011;69749;42.684;23.360;2024-03-08T04:59:21;3.92;;;2.30;;
80411;SDS011;69749;42.684;23.360;2024-03-08T05:01:46;2.60;;;1.90;;
80411;SDS011;69749;42.684;23.360;2024-03-08T05:04:12;2.22;;;1.80;;
80411;SDS011;69749;42.684;23.360;2024-03-08T05:06:38;2.42;;;2.03;;
80411;SDS011;69749;42.684;23.360;2024-03-08T05:09:04;3.25;;;2.08;;
80411;SDS011;69749;42.684;23.360;2024-03-08T05:11:41;2.33;;;1.83;;
80411;SDS011;69749;42.684;23.360;2024-03-08T05:14:08;2.90;;;2.20;;
80411;SDS011;69749;42.684;23.360;2024-03-08T05:16:35;4.43;;;2.10;;
80411;SDS011;69749;42.684;23.360;2024-03-08T05:19:01;2.63;;;2.22;;
80411;SDS011;69749;42.684;23.360;2024-03-08T05:21:27;4.03;;;2.40;;
80411;SDS011;69749;42.684;23.360;2024-03-08T05:23:54;2.67;;;2.13;;
80411;SDS011;69749;42.684;23.360;2024-03-08T05:26:19;2.00;;;1.80;;
80411;SDS011;69749;42.684;23.360;2024-03-08T05:28:47;3.90;;;2.45;;
80411;SDS011;69749;42.684;23.360;2024-03-08T05:31:20;3.08;;;2.42;;
80411;SDS011;69749;42.684;23.360;2024-03-08T05:33:47;2.72;;;2.30;;
80411;SDS011;69749;42.684;23.360;2024-03-08T05:36:13;4.82;;;2.75;;
80411;SDS011;69749;42.684;23.360;2024-03-08T05:38:40;5.90;;;3.80;;
80411;SDS011;69749;42.684;23.360;2024-03-08T05:41:07;11.02;;;6.25;;
80411;SDS011;69749;42.684;23.360;2024-03-08T05:43:33;8.30;;;4.60;;
80411;SDS011;69749;42.684;23.360;2024-03-08T05:45:58;6.30;;;3.50;;
80411;SDS011;69749;42.684;23.360;2024-03-08T05:48:24;15.30;;;7.43;;
80411;SDS011;69749;42.684;23.360;2024-03-08T05:50:50;8.75;;;4.70;;
80411;SDS011;69749;42.684;23.360;2024-03-08T05:53:15;6.65;;;4.03;;
80411;SDS011;69749;42.684;23.360;2024-03-08T05:55:41;7.38;;;4.50;;
80411;SDS011;69749;42.684;23.360;2024-03-08T05:58:07;8.13;;;4.70;;
80411;SDS011;69749;42.684;23.360;2024-03-08T06:00:33;7.57;;;4.82;;
80411;SDS011;69749;42.684;23.360;2024-03-08T06:03:01;11.30;;;7.05;;
80411;SDS011;69749;42.684;23.360;2024-03-08T06:05:27;12.13;;;7.43;;
80411;SDS011;69749;42.684;23.360;2024-03-08T06:07:53;9.27;;;6.47;;
80411;SDS011;69749;42.684;23.360;2024-03-08T06:10:18;15.85;;;6.70;;
80411;SDS011;69749;42.684;23.360;2024-03-08T06:12:44;10.95;;;6.13;;
80411;SDS011;69749;42.684;23.360;2024-03-08T06:15:10;8.02;;;5.07;;
80411;SDS011;69749;42.684;23.360;2024-03-08T06:17:39;9.88;;;5.80;;
80411;SDS011;69749;42.684;23.360;2024-03-08T06:20:08;8.98;;;5.75;;
80411;SDS011;69749;42.684;23.360;2024-03-08T06:22:38;9.57;;;5.10;;
80411;SDS011;69749;42.684;23.360;2024-03-08T06:25:09;7.72;;;5.20;;
80411;SDS011;69749;42.684;23.360;2024-03-08T06:27:41;6.65;;;4.43;;
80411;SDS011;69749;42.684;23.360;2024-03-08T06:30:07;5.32;;;4.05;;
80411;SDS011;69749;42.684;23.360;2024-03-08T06:32:35;6.00;;;4.35;;
80411;SDS011;69749;42.684;23.360;2024-03-08T06:35:01;6.05;;;4.13;;
80411;SDS011;69749;42.684;23.360;2024-03-08T06:37:31;4.38;;;3.47;;
80411;SDS011;69749;42.684;23.360;2024-03-08T06:39:59;5.97;;;3.97;;
80411;SDS011;69749;42.684;23.360;2024-03-08T06:42:26;5.38;;;3.58;;
80411;SDS011;69749;42.684;23.360;2024-03-08T06:44:53;7.20;;;4.20;;
80411;SDS011;69749;42.684;23.360;2024-03-08T06:47:21;5.93;;;3.80;;
80411;SDS011;69749;42.684;23.360;2024-03-08T06:49:47;6.93;;;4.43;;
80411;SDS011;69749;42.684;23.360;2024-03-08T06:52:14;7.25;;;4.18;;
80411;SDS011;69749;42.684;23.360;2024-03-08T06:54:40;5.55;;;3.83;;
80411;SDS011;69749;42.684;23.360;2024-03-08T06:57:05;5.40;;;3.50;;
80411;SDS011;69749;42.684;23.360;2024-03-08T06:59:34;7.22;;;4.05;;
80411;SDS011;69749;42.684;23.360;2024-03-08T07:02:01;5.75;;;4.07;;
80411;SDS011;69749;42.684;23.360;2024-03-08T07:04:27;6.88;;;4.00;;
80411;SDS011;69749;42.684;23.360;2024-03-08T07:06:57;4.90;;;3.17;;
80411;SDS011;69749;42.684;23.360;2024-03-08T07:09:23;7.28;;;3.60;;
80411;SDS011;69749;42.684;23.360;2024-03-08T07:11:52;5.40;;;3.65;;
80411;SDS011;69749;42.684;23.360;2024-03-08T07:14:23;5.25;;;4.07;;
80411;SDS011;69749;42.684;23.360;2024-03-08T07:16:49;6.57;;;4.10;;
80411;SDS011;69749;42.684;23.360;2024-03-08T07:19:16;6.65;;;4.15;;
80411;SDS011;69749;42.684;23.360;2024-03-08T07:21:45;6.95;;;4.53;;
80411;SDS011;69749;42.684;23.360;2024-03-08T07:24:12;6.18;;;3.97;;
80411;SDS011;69749;42.684;23.360;2024-03-08T07:27:04;6.93;;;4.25;;
80411;SDS011;69749;42.684;23.360;2024-03-08T07:29:30;7.38;;;4.25;;
80411;SDS011;69749;42.684;23.360;2024-03-08T07:31:56;6.45;;;3.80;;
80411;SDS011;69749;42.684;23.360;2024-03-08T07:34:28;7.40;;;4.75;;
80411;SDS011;69749;42.684;23.360;2024-03-08T07:36:57;5.32;;;3.78;;
80411;SDS011;69749;42.684;23.360;2024-03-08T07:39:23;6.35;;;4.50;;
80411;SDS011;69749;42.684;23.360;2024-03-08T07:41:49;6.22;;;4.43;;
80411;SDS011;69749;42.684;23.360;2024-03-08T07:44:17;7.28;;;4.32;;
80411;SDS011;69749;42.684;23.360;2024-03-08T07:46:43;8.02;;;4.93;;
80411;SDS011;69749;42.684;23.360;2024-03-08T07:49:09;6.57;;;4.20;;
80411;SDS011;69749;42.684;23.360;2024-03-08T07:51:36;7.22;;;4.93;;
80411;SDS011;69749;42.684;23.360;2024-03-08T07:54:02;5.78;;;3.80;;
80411;SDS011;69749;42.684;23.360;2024-03-08T07:56:29;4.13;;;3.53;;
80411;SDS011;69749;42.684;23.360;2024-03-08T07:58:55;5.70;;;3.72;;
80411;SDS011;69749;42.684;23.360;2024-03-08T08:01:21;4.72;;;3.60;;
80411;SDS011;69749;42.684;23.360;2024-03-08T08:03:47;4.32;;;3.13;;
80411;SDS011;69749;42.684;23.360;2024-03-08T08:06:14;8.82;;;4.60;;
80411;SDS011;69749;42.684;23.360;2024-03-08T08:08:44;7.13;;;3.63;;
80411;SDS011;69749;42.684;23.360;2024-03-08T08:11:10;4.10;;;2.97;;
80411;SDS011;69749;42.684;23.360;2024-03-08T08:13:40;5.93;;;3.55;;
80411;SDS011;69749;42.684;23.360;2024-03-08T08:16:08;4.25;;;2.67;;
80411;SDS011;69749;42.684;23.360;2024-03-08T08:18:35;3.70;;;2.83;;
80411;SDS011;69749;42.684;23.360;2024-03-08T08:21:04;3.97;;;2.67;;
80411;SDS011;69749;42.684;23.360;2024-03-08T08:23:31;3.72;;;2.67;;
80411;SDS011;69749;42.684;23.360;2024-03-08T08:25:58;3.08;;;2.63;;
80411;SDS011;69749;42.684;23.360;2024-03-08T08:28:24;3.10;;;2.28;;
80411;SDS011;69749;42.684;23.360;2024-03-08T08:30:50;2.85;;;2.28;;
80411;SDS011;69749;42.684;23.360;2024-03-08T08:33:15;2.50;;;2.28;;
80411;SDS011;69749;42.684;23.360;2024-03-08T08:35:41;6.10;;;3.60;;
80411;SDS011;69749;42.684;23.360;2024-03-08T08:38:07;3.83;;;2.53;;
80411;SDS011;69749;42.684;23.360;2024-03-08T08:40:33;6.10;;;3.30;;
80411;SDS011;69749;42.684;23.360;2024-03-08T08:43:01;6.75;;;3.13;;
80411;SDS011;69749;42.684;23.360;2024-03-08T08:45:29;4.88;;;2.35;;
80411;SDS011;69749;42.684;23.360;2024-03-08T08:47:55;3.75;;;2.78;;
80411;SDS011;69749;42.684;23.360;2024-03-08T08:50:21;3.35;;;2.80;;
80411;SDS011;69749;42.684;23.360;2024-03-08T08:52:50;2.75;;;2.55;;
80411;SDS011;69749;42.684;23.360;2024-03-08T08:55:16;2.47;;;2.22;;
80411;SDS011;69749;42.684;23.360;2024-03-08T08:57:46;3.83;;;1.90;;
80411;SDS011;69749;42.684;23.360;2024-03-08T09:00:12;4.35;;;2.20;;
80411;SDS011;69749;42.684;23.360;2024-03-08T09:02:40;3.20;;;2.13;;
80411;SDS011;69749;42.684;23.360;2024-03-08T09:05:06;3.55;;;2.38;;
80411;SDS011;69749;42.684;23.360;2024-03-08T09:07:36;8.00;;;4.18;;
80411;SDS011;69749;42.684;23.360;2024-03-08T09:10:02;4.03;;;2.30;;
80411;SDS011;69749;42.684;23.360;2024-03-08T09:12:29;3.58;;;2.78;;
80411;SDS011;69749;42.684;23.360;2024-03-08T09:14:54;3.50;;;2.00;;
80411;SDS011;69749;42.684;23.360;2024-03-08T09:17:20;3.05;;;2.13;;
80411;SDS011;69749;42.684;23.360;2024-03-08T09:19:48;2.22;;;2.00;;
80411;SDS011;69749;42.684;23.360;2024-03-08T09:22:14;5.32;;;2.95;;
80411;SDS011;69749;42.684;23.360;2024-03-08T09:24:40;2.78;;;2.17;;
80411;SDS011;69749;42.684;23.360;2024-03-08T09:27:08;2.20;;;1.90;;
80411;SDS011;69749;42.684;23.360;2024-03-08T09:29:34;7.60;;;4.32;;
80411;SDS011;69749;42.684;23.360;2024-03-08T09:32:00;2.78;;;2.47;;
80411;SDS011;69749;42.684;23.360;2024-03-08T09:34:26;3.42;;;2.45;;
80411;SDS011;69749;42.684;23.360;2024-03-08T09:36:51;3.20;;;2.30;;
80411;SDS011;69749;42.684;23.360;2024-03-08T09:39:17;3.85;;;2.20;;
80411;SDS011;69749;42.684;23.360;2024-03-08T09:41:45;2.50;;;2.03;;
80411;SDS011;69749;42.684;23.360;2024-03-08T09:44:15;2.60;;;2.15;;
80411;SDS011;69749;42.684;23.360;2024-03-08T09:46:41;1.80;;;1.65;;
80411;SDS011;69749;42.684;23.360;2024-03-08T09:49:07;2.60;;;2.15;;
80411;SDS011;69749;42.684;23.360;2024-03-08T09:51:34;6.35;;;3.75;;
80411;SDS011;69749;42.684;23.360;2024-03-08T09:54:05;1.67;;;1.55;;
80411;SDS011;69749;42.684;23.360;2024-03-08T09:56:34;3.67;;;2.60;;
80411;SDS011;69749;42.684;23.360;2024-03-08T09:59:01;3.33;;;1.83;;
80411;SDS011;69749;42.684;23.360;2024-03-08T10:01:45;1.75;;;1.58;;
80411;SDS011;69749;42.684;23.360;2024-03-08T10:04:11;3.45;;;1.88;;
80411;SDS011;69749;42.684;23.360;2024-03-08T10:06:38;2.60;;;2.40;;
80411;SDS011;69749;42.684;23.360;2024-03-08T10:09:04;4.13;;;1.92;;
80411;SDS011;69749;42.684;23.360;2024-03-08T10:11:32;4.40;;;2.97;;
80411;SDS011;69749;42.684;23.360;2024-03-08T10:13:59;3.85;;;1.95;;
80411;SDS011;69749;42.684;23.360;2024-03-08T10:16:26;2.13;;;1.92;;
80411;SDS011;69749;42.684;23.360;2024-03-08T10:18:52;2.00;;;1.63;;
80411;SDS011;69749;42.684;23.360;2024-03-08T10:21:18;4.00;;;1.77;;
80411;SDS011;69749;42.684;23.360;2024-03-08T10:23:44;3.42;;;1.60;;
80411;SDS011;69749;42.684;23.360;2024-03-08T10:26:10;2.13;;;1.60;;
80411;SDS011;69749;42.684;23.360;2024-03-08T10:28:46;2.50;;;2.15;;
80411;SDS011;69749;42.684;23.360;2024-03-08T10:31:16;3.15;;;1.95;;
80411;SDS011;69749;42.684;23.360;2024-03-08T10:33:42;1.95;;;1.60;;
80411;SDS011;69749;42.684;23.360;2024-03-08T10:36:09;1.67;;;1.58;;
80411;SDS011;69749;42.684;23.360;2024-03-08T10:38:36;3.30;;;1.70;;
80411;SDS011;69749;42.684;23.360;2024-03-08T10:41:06;1.70;;;1.60;;
80411;SDS011;69749;42.684;23.360;2024-03-08T10:43:47;8.65;;;1.98;;
80411;SDS011;69749;42.684;23.360;2024-03-08T10:48:50;1.60;;;1.50;;
80411;SDS011;69749;42.684;23.360;2024-03-08T10:51:20;2.47;;;1.98;;
80411;SDS011;69749;42.684;23.360;2024-03-08T10:53:46;2.65;;;2.20;;
80411;SDS011;69749;42.684;23.360;2024-03-08T10:56:14;1.60;;;1.50;;
80411;SDS011;69749;42.684;23.360;2024-03-08T10:58:39;2.65;;;1.60;;
80411;SDS011;69749;42.684;23.360;2024-03-08T11:01:06;9.05;;;2.20;;
80411;SDS011;69749;42.684;23.360;2024-03-08T11:06:21;1.90;;;1.60;;
80411;SDS011;69749;42.684;23.360;2024-03-08T11:09:08;1.50;;;1.40;;
80411;SDS011;69749;42.684;23.360;2024-03-08T11:11:52;1.70;;;1.40;;
80411;SDS011;69749;42.684;23.360;2024-03-08T11:14:51;3.58;;;1.63;;
80411;SDS011;69749;42.684;23.360;2024-03-08T11:17:13;4.50;;;2.95;;
80411;SDS011;69749;42.684;23.360;2024-03-08T11:19:44;3.25;;;2.30;;
80411;SDS011;69749;42.684;23.360;2024-03-08T11:22:13;2.20;;;1.88;;
80411;SDS011;69749;42.684;23.360;2024-03-08T11:24:49;2.22;;;1.55;;
80411;SDS011;69749;42.684;23.360;2024-03-08T11:27:15;2.38;;;1.60;;
80411;SDS011;69749;42.684;23.360;2024-03-08T11:29:40;1.65;;;1.50;;
80411;SDS011;69749;42.684;23.360;2024-03-08T11:32:16;2.38;;;1.77;;
80411;SDS011;69749;42.684;23.360;2024-03-08T11:34:45;1.95;;;1.45;;
80411;SDS011;69749;42.684;23.360;2024-03-08T11:37:21;1.83;;;1.45;;
80411;SDS011;69749;42.684;23.360;2024-03-08T11:39:47;2.22;;;1.60;;
80411;SDS011;69749;42.684;23.360;2024-03-08T11:42:14;1.40;;;1.30;;
80411;SDS011;69749;42.684;23.360;2024-03-08T11:44:42;2.13;;;1.92;;
80411;SDS011;69749;42.684;23.360;2024-03-08T11:47:11;2.00;;;1.80;;
80411;SDS011;69749;42.684;23.360;2024-03-08T11:49:39;1.88;;;1.52;;
80411;SDS011;69749;42.684;23.360;2024-03-08T11:52:13;3.38;;;1.80;;
80411;SDS011;69749;42.684;23.360;2024-03-08T11:54:40;1.73;;;1.40;;
80411;SDS011;69749;42.684;23.360;2024-03-08T11:57:07;2.03;;;1.52;;
80411;SDS011;69749;42.684;23.360;2024-03-08T11:59:34;1.20;;;1.08;;
80411;SDS011;69749;42.684;23.360;2024-03-08T12:02:04;2.38;;;1.10;;
80411;SDS011;69749;42.684;23.360;2024-03-08T12:04:31;6.10;;;2.97;;
80411;SDS011;69749;42.684;23.360;2024-03-08T12:07:01;1.85;;;1.70;;
80411;SDS011;69749;42.684;23.360;2024-03-08T12:09:28;1.65;;;1.35;;
80411;SDS011;69749;42.684;23.360;2024-03-08T12:11:53;1.08;;;1.00;;
80411;SDS011;69749;42.684;23.360;2024-03-08T12:14:19;1.35;;;1.25;;
80411;SDS011;69749;42.684;23.360;2024-03-08T12:16:46;5.45;;;5.03;;
80411;SDS011;69749;42.684;23.360;2024-03-08T12:19:13;2.88;;;1.33;;
80411;SDS011;69749;42.684;23.360;2024-03-08T12:21:39;1.73;;;1.42;;
80411;SDS011;69749;42.684;23.360;2024-03-08T12:24:13;1.42;;;1.13;;
80411;SDS011;69749;42.684;23.360;2024-03-08T12:26:44;1.40;;;1.20;;
80411;SDS011;69749;42.684;23.360;2024-03-08T12:29:17;4.10;;;2.20;;
80411;SDS011;69749;42.684;23.360;2024-03-08T12:34:18;2.95;;;1.50;;
80411;SDS011;69749;42.684;23.360;2024-03-08T12:36:47;1.73;;;1.25;;
80411;SDS011;69749;42.684;23.360;2024-03-08T12:39:15;4.28;;;1.50;;
80411;SDS011;69749;42.684;23.360;2024-03-08T12:41:43;2.05;;;1.80;;
80411;SDS011;69749;42.684;23.360;2024-03-08T12:44:09;1.60;;;1.48;;
80411;SDS011;69749;42.684;23.360;2024-03-08T12:46:37;5.40;;;1.70;;
80411;SDS011;69749;42.684;23.360;2024-03-08T12:49:08;1.10;;;1.00;;
80411;SDS011;69749;42.684;23.360;2024-03-08T12:51:37;1.40;;;1.27;;
80411;SDS011;69749;42.684;23.360;2024-03-08T12:54:04;3.40;;;1.40;;
80411;SDS011;69749;42.684;23.360;2024-03-08T12:56:32;2.28;;;2.08;;
80411;SDS011;69749;42.684;23.360;2024-03-08T12:58:59;1.42;;;1.20;;
80411;SDS011;69749;42.684;23.360;2024-03-08T13:01:26;1.73;;;1.20;;
80411;SDS011;69749;42.684;23.360;2024-03-08T13:03:52;1.92;;;1.40;;
80411;SDS011;69749;42.684;23.360;2024-03-08T13:06:19;2.03;;;1.30;;
80411;SDS011;69749;42.684;23.360;2024-03-08T13:08:49;1.98;;;1.10;;
80411;SDS011;69749;42.684;23.360;2024-03-08T13:11:19;1.20;;;1.10;;
80411;SDS011;69749;42.684;23.360;2024-03-08T13:13:45;1.58;;;0.95;;
80411;SDS011;69749;42.684;23.360;2024-03-08T13:16:11;1.65;;;1.30;;
80411;SDS011;69749;42.684;23.360;2024-03-08T13:18:39;1.65;;;1.20;;
80411;SDS011;69749;42.684;23.360;2024-03-08T13:21:08;3.70;;;1.15;;
80411;SDS011;69749;42.684;23.360;2024-03-08T13:23:34;1.13;;;1.00;;
80411;SDS011;69749;42.684;23.360;2024-03-08T13:26:12;1.27;;;1.17;;
80411;SDS011;69749;42.684;23.360;2024-03-08T13:28:50;1.55;;;1.17;;
80411;SDS011;69749;42.684;23.360;2024-03-08T13:31:19;1.77;;;1.20;;
80411;SDS011;69749;42.684;23.360;2024-03-08T13:33:45;1.20;;;1.10;;
80411;SDS011;69749;42.684;23.360;2024-03-08T13:36:12;2.05;;;1.10;;
80411;SDS011;69749;42.684;23.360;2024-03-08T13:41:08;1.30;;;1.20;;
80411;SDS011;69749;42.684;23.360;2024-03-08T13:43:34;1.25;;;1.13;;
80411;SDS011;69749;42.684;23.360;2024-03-08T13:46:01;1.20;;;1.10;;
80411;SDS011;69749;42.684;23.360;2024-03-08T13:48:27;1.65;;;1.52;;
80411;SDS011;69749;42.684;23.360;2024-03-08T13:50:53;1.70;;;1.60;;
80411;SDS011;69749;42.684;23.360;2024-03-08T13:53:19;2.15;;;1.45;;
80411;SDS011;69749;42.684;23.360;2024-03-08T13:55:45;1.40;;;1.27;;
80411;SDS011;69749;42.684;23.360;2024-03-08T13:58:10;1.30;;;1.20;;
80411;SDS011;69749;42.684;23.360;2024-03-08T14:00:39;2.03;;;1.50;;
80411;SDS011;69749;42.684;23.360;2024-03-08T14:03:06;2.05;;;1.60;;
80411;SDS011;69749;42.684;23.360;2024-03-08T14:05:32;2.67;;;1.73;;
80411;SDS011;69749;42.684;23.360;2024-03-08T14:08:01;5.32;;;1.95;;
80411;SDS011;69749;42.684;23.360;2024-03-08T14:10:31;3.30;;;1.77;;
80411;SDS011;69749;42.684;23.360;2024-03-08T14:12:57;1.92;;;1.50;;
80411;SDS011;69749;42.684;23.360;2024-03-08T14:15:23;2.47;;;2.00;;
80411;SDS011;69749;42.684;23.360;2024-03-08T14:17:53;3.03;;;2.28;;
80411;SDS011;69749;42.684;23.360;2024-03-08T14:20:19;2.50;;;1.60;;
80411;SDS011;69749;42.684;23.360;2024-03-08T14:22:44;3.05;;;2.00;;
80411;SDS011;69749;42.684;23.360;2024-03-08T14:25:11;6.68;;;2.13;;
80411;SDS011;69749;42.684;23.360;2024-03-08T14:27:42;2.80;;;2.13;;
80411;SDS011;69749;42.684;23.360;2024-03-08T14:30:09;2.95;;;1.90;;
80411;SDS011;69749;42.684;23.360;2024-03-08T14:32:35;5.88;;;1.80;;
80411;SDS011;69749;42.684;23.360;2024-03-08T14:35:03;2.70;;;1.98;;
80411;SDS011;69749;42.684;23.360;2024-03-08T14:37:33;2.15;;;1.50;;
80411;SDS011;69749;42.684;23.360;2024-03-08T14:39:58;2.03;;;1.42;;
80411;SDS011;69749;42.684;23.360;2024-03-08T14:42:24;2.70;;;2.13;;
80411;SDS011;69749;42.684;23.360;2024-03-08T14:44:50;4.28;;;2.28;;
80411;SDS011;69749;42.684;23.360;2024-03-08T14:47:17;2.92;;;1.88;;
80411;SDS011;69749;42.684;23.360;2024-03-08T14:49:43;3.33;;;2.00;;
80411;SDS011;69749;42.684;23.360;2024-03-08T14:52:08;6.60;;;2.22;;
80411;SDS011;69749;42.684;23.360;2024-03-08T14:54:52;3.97;;;2.10;;